Surprise, AZ (85374)

11:43 PM MST on May 24, 2017 (GMT -0700)
Kingswood Parke | | Change Station

Elev 1227 ft 33.64 °N, 112.37 °W | Updated 13 seconds ago

Partly Cloudy
Partly Cloudy
90.5 °F
Feels Like 86 °F
N
2.2
Wind Variable Wind from West
Gusts 4.5 mph

Today
High -- | Low -- °F
--% Chance of Precip.
Yesterday
High -- | Low -- °F
Precip. -- in
Pressure 29.55 in
Visibility 10.0 miles
Clouds Clear
Heat Index 86 °F
Dew Point 26 °F
Humidity 10%
Rainfall 0.00 in
Snow Depth Not available.
5:23 AM 7:29 PM
Waning Crescent, 0% visible
METAR KLUF 250558Z AUTO 23012KT 10SM CLR 31/00 A2960 RMK AO2 RAB0458E04 SLP007 P0000 60000 T03100004 10404 20310 52016 $
Pressure 29.55 in
Visibility 10.0 miles
Clouds Clear
Heat Index 86 °F
Dew Point 26 °F
Humidity 10%
Rainfall 0.00 in
Snow Depth Not available.
5:23 AM 7:29 PM
Waning Crescent, 0% visible
METAR KLUF 250558Z AUTO 23012KT 10SM CLR 31/00 A2960 RMK AO2 RAB0458E04 SLP007 P0000 60000 T03100004 10404 20310 52016 $

Get Severe Weather Alerts

Thanks for signing up!

Be on the lookout for a verification email in your inbox.

You'll start receiving the daily forecast at 6 AM.

×

10-Day Weather Forecast

Almanac

Astronomy

May. 24, 2017 Rise Set
Actual Time
Civil Twilight
Nautical Twilight
Astronomical Twilight
Moon
Length of Visible Light
Length of Day
Tomorrow will be .
, % of the Moon is Illuminated

Today's Extremes

State Highs State Lows

Community

WunderPhotos

Category 6

Welcome to Category 6. This is the collective home for Weather Underground's featured writeups by Dr. Jeff Masters (right), Bob Henson (left), Chris Burt, and other regular contributors.

Nearby

Air Quality

  Air Quality AQ Index Pollutant
Not available.

Snow Depth

Station Depth Elevation

Earthquake Activity

City Distance Mag. Time & Date
Minimum magnitude displayed is 2.5.

Coastal Water Temperatures

Place Temperature

Stations

Nearby Weather Stations

Station Location Temp. Windchill Dew Point Humidity Wind Precip. Elev Updated Type
                   

Watches & Warnings

There are currently no watches in effect.